St Aqua — A8ZG3 — position and weather

sailwx.info

Track history (hours):
 
Tides and Currents Weather Stations Pressure Air Temp Water Temp Dewpoint Dewpoint Depression Visibility Wind Speed Wind Dir Waves Ship Positions

St Aqua

Last reported at 2018-Feb-21 02:56 UTC. Time now 2018-Feb-22 13:11 UTC.
Position N 29°17' W 094°31'.

Length 155 m; draft 8.7 m.

Type: Tanker. MMSI: 636015203.

Date/timePositionNaut miles runAvg speedWind from/ knotsBaromVisibWave heightAir tempDewpointWater temp
2018-Feb-21 02:56N 29°17' W 094°31'0 0.0
2018-Feb-21 01:44N 29°17' W 094°31'0 0.0
2018-Feb-20 22:20N 29°17' W 094°31'0 0.0
2018-Feb-20 21:59N 29°17' W 094°31'0 0.0
2018-Feb-20 21:29N 29°17' W 094°31'0 0.0
2018-Feb-20 17:14N 29°17' W 094°31'0 0.0
2018-Feb-20 13:56N 29°17' W 094°31'0 0.1
2018-Feb-20 13:17N 29°17' W 094°31'0 0.0
2018-Feb-20 12:59N 29°17' W 094°31'0 0.1
2018-Feb-20 12:29N 29°17' W 094°31'0 0.1
2018-Feb-20 11:41N 29°17' W 094°31'0 0.0
2018-Feb-20 11:23N 29°17' W 094°31'0 0.0
2018-Feb-20 10:56N 29°17' W 094°31'0 0.0
2018-Feb-20 09:35N 29°17' W 094°31'0 0.1
2018-Feb-20 09:26N 29°17' W 094°31'0 0.0
2018-Feb-20 07:26N 29°17' W 094°31'0 0.0
2018-Feb-20 06:59N 29°17' W 094°31'0 0.0
2018-Feb-20 06:29N 29°17' W 094°31'0 0.0
2018-Feb-20 05:59N 29°17' W 094°31'22 4.7
2018-Feb-20 01:22N 29°22' W 094°06'411.8
2018-Feb-20 01:00N 29°25' W 094°03'611.8
2018-Feb-20 00:30N 29°28' W 093°57'611.8
2018-Feb-20 00:00N 29°30' W 093°51'611.9
2018-Feb-19 23:30N 29°32' W 093°45'611.8
2018-Feb-19 23:00N 29°33' W 093°38'611.8
2018-Feb-19 22:30N 29°35' W 093°31'611.6
2018-Feb-19 22:00N 29°36' W 093°25'7 1.8
2018-Feb-19 17:48N 29°37' W 093°16'2 6.0
2018-Feb-19 17:30N 29°37' W 093°18'5 9.7
2018-Feb-19 17:00N 29°41' W 093°20'511.1
2018-Feb-19 16:30N 29°47' W 093°21'510.2
2018-Feb-19 16:00N 29°52' W 093°21'5 9.5
2018-Feb-19 15:31N 29°57' W 093°20'4 8.1
2018-Feb-19 15:01N 30°01' W 093°20'5 7.9
2018-Feb-19 14:26N 30°05' W 093°20'3 7.1
2018-Feb-19 14:00N 30°08' W 093°20'3 5.1
2018-Feb-19 13:30N 30°11' W 093°19'3 5.0
2018-Feb-19 13:01N 30°12' W 093°17'1 2.6
2018-Feb-19 12:30N 30°13' W 093°17'0 0.0
2018-Feb-19 11:59N 30°13' W 093°17'0 0.0
2018-Feb-19 11:29N 30°13' W 093°17'0 0.0
2018-Feb-19 10:59N 30°13' W 093°17'0 0.0
2018-Feb-19 10:29N 30°13' W 093°17'0 0.0
2018-Feb-19 09:56N 30°13' W 093°17'0 0.0
2018-Feb-19 09:26N 30°13' W 093°17'0 0.0
2018-Feb-19 08:59N 30°13' W 093°17'0 0.0
2018-Feb-19 08:23N 30°13' W 093°17'0 0.0
2018-Feb-19 07:59N 30°13' W 093°17'0 0.0
2018-Feb-19 07:29N 30°13' W 093°17'0 0.0
2018-Feb-19 06:59N 30°13' W 093°17'0 0.0
2018-Feb-19 06:29N 30°13' W 093°17'0 0.0
2018-Feb-19 05:59N 30°13' W 093°17'0 0.0
2018-Feb-19 05:29N 30°13' W 093°17'0 0.0
2018-Feb-19 04:59N 30°13' W 093°17'0 0.0
2018-Feb-19 04:29N 30°13' W 093°17'0 0.0
2018-Feb-19 03:59N 30°13' W 093°17'0 0.0
2018-Feb-19 03:29N 30°13' W 093°17'0 0.0
2018-Feb-19 02:59N 30°13' W 093°17'0 0.0
2018-Feb-19 02:29N 30°13' W 093°17'0 0.0
2018-Feb-19 01:59N 30°13' W 093°17'0 0.0
2018-Feb-19 01:29N 30°13' W 093°17'0 0.0
2018-Feb-19 00:59N 30°13' W 093°17'0 0.0
2018-Feb-19 00:29N 30°13' W 093°17'0 0.0
2018-Feb-18 23:59N 30°13' W 093°17'0 0.0
2018-Feb-18 23:29N 30°13' W 093°17'0 0.0
2018-Feb-18 22:59N 30°13' W 093°17'0 0.0
2018-Feb-18 22:29N 30°13' W 093°17'0 0.0
2018-Feb-18 21:59N 30°13' W 093°17'0 0.0
2018-Feb-18 21:29N 30°13' W 093°17'0 0.0
2018-Feb-18 20:59N 30°13' W 093°17'0 0.0
2018-Feb-18 20:29N 30°13' W 093°17'0 0.0
2018-Feb-18 19:59N 30°13' W 093°17'0 0.0
2018-Feb-18 19:29N 30°13' W 093°17'0 0.0
2018-Feb-18 18:59N 30°13' W 093°17'0 0.0
2018-Feb-18 18:29N 30°13' W 093°17'0 0.0
2018-Feb-18 17:59N 30°13' W 093°17'0 0.0
2018-Feb-18 17:29N 30°13' W 093°17'0 0.0
2018-Feb-18 16:59N 30°13' W 093°17'0 0.0
2018-Feb-18 16:29N 30°13' W 093°17'0 0.0
2018-Feb-18 15:59N 30°13' W 093°17'0 0.0
2018-Feb-18 15:29N 30°13' W 093°17'0 0.0
2018-Feb-18 14:59N 30°13' W 093°17'0 0.0
2018-Feb-18 14:29N 30°13' W 093°17'0 0.0
2018-Feb-18 13:59N 30°13' W 093°17'0 0.0
2018-Feb-18 13:29N 30°13' W 093°17'0 0.0
2018-Feb-18 12:59N 30°13' W 093°17'0 0.0
2018-Feb-18 12:29N 30°13' W 093°17'0 0.0
2018-Feb-18 11:59N 30°13' W 093°17'0 0.0
2018-Feb-18 11:29N 30°13' W 093°17'0 0.0
2018-Feb-18 10:59N 30°13' W 093°17'0 0.0
2018-Feb-18 10:29N 30°13' W 093°17'0 0.0
2018-Feb-18 09:59N 30°13' W 093°17'0 0.0
2018-Feb-18 09:29N 30°13' W 093°17'0 0.0
2018-Feb-18 08:59N 30°13' W 093°17'0 0.0
2018-Feb-18 08:29N 30°13' W 093°17'0 0.0
2018-Feb-18 07:59N 30°13' W 093°17'0 0.0
2018-Feb-18 07:29N 30°13' W 093°17'0 0.0
2018-Feb-18 06:59N 30°13' W 093°17'0 0.0
2018-Feb-18 06:29N 30°13' W 093°17'0 0.0
2018-Feb-18 05:59N 30°13' W 093°17'0 0.0
2018-Feb-18 05:29N 30°13' W 093°17'0 0.0
2018-Feb-18 04:59N 30°13' W 093°17'0 0.0
2018-Feb-18 04:29N 30°13' W 093°17'0 0.0
2018-Feb-18 03:59N 30°13' W 093°17'0 0.0
2018-Feb-18 03:29N 30°13' W 093°17'0 0.0
2018-Feb-18 02:59N 30°13' W 093°17'0 0.0
2018-Feb-18 02:29N 30°13' W 093°17'0 0.0
2018-Feb-18 01:59N 30°13' W 093°17'0 0.0
2018-Feb-18 01:29N 30°13' W 093°17'0 0.0
2018-Feb-18 00:59N 30°13' W 093°17'0 0.0
2018-Feb-18 00:29N 30°13' W 093°17'0 0.0
2018-Feb-17 23:59N 30°13' W 093°17'0 0.0
2018-Feb-17 23:29N 30°13' W 093°17'0 0.0
2018-Feb-17 22:59N 30°13' W 093°17'0 0.0
2018-Feb-17 22:29N 30°13' W 093°17'0 0.0
2018-Feb-17 21:59N 30°13' W 093°17'0 0.0
2018-Feb-17 21:29N 30°13' W 093°17'0 0.1
2018-Feb-17 21:01N 30°13' W 093°17'2 3.7
2018-Feb-17 20:30N 30°12' W 093°17'3 6.1
2018-Feb-17 20:00N 30°09' W 093°20'4 7.2
2018-Feb-17 19:30N 30°06' W 093°20'4 8.7
2018-Feb-17 19:00N 30°01' W 093°20'4 7.0
2018-Feb-17 18:30N 29°58' W 093°20'5 9.2
2018-Feb-17 18:00N 29°53' W 093°21'5 9.6
2018-Feb-17 17:30N 29°48' W 093°21'4 8.8
2018-Feb-17 17:00N 29°44' W 093°20'611.3
2018-Feb-17 16:30N 29°38' W 093°19'6 0.6
2018-Feb-17 05:59N 29°35' W 093°14'0 0.0
2018-Feb-17 05:29N 29°35' W 093°14'0 0.0
2018-Feb-17 04:56N 29°35' W 093°14'0 0.0
2018-Feb-17 03:14N 29°35' W 093°14'0 0.0
2018-Feb-17 02:56N 29°35' W 093°14'0 0.0
2018-Feb-17 02:29N 29°35' W 093°14'0 0.0
2018-Feb-17 01:59N 29°35' W 093°14'0 0.0
2018-Feb-17 01:26N 29°35' W 093°14'0 0.0
2018-Feb-17 00:50N 29°35' W 093°14'0 0.0
2018-Feb-17 00:26N 29°35' W 093°14'0 0.0
2018-Feb-16 23:59N 29°35' W 093°14'0 0.0
2018-Feb-16 23:23N 29°35' W 093°14'0 0.0
2018-Feb-16 22:50N 29°35' W 093°14'0 0.0
2018-Feb-16 22:26N 29°35' W 093°14'0 0.0
2018-Feb-16 21:59N 29°35' W 093°14'0 0.0
2018-Feb-16 21:14N 29°35' W 093°14'0 0.0
2018-Feb-16 20:44N 29°35' W 093°14'0 0.0
2018-Feb-16 20:26N 29°35' W 093°14'0 0.0
2018-Feb-16 19:47N 29°35' W 093°14'0 0.1
2018-Feb-16 18:32N 29°35' W 093°14'0 0.9
2018-Feb-16 18:30N 29°35' W 093°14'4 7.1
2018-Feb-16 18:00N 29°32' W 093°13'612.8
2018-Feb-16 17:30N 29°25' W 093°13'3212.4
2018-Feb-16 14:53N 28°53' W 093°12'512.2
2018-Feb-16 14:30N 28°48' W 093°12'7 9.0
2018-Feb-16 13:44N 28°41' W 093°12'313.9
2018-Feb-16 13:30N 28°38' W 093°12'913.4
2018-Feb-16 12:49N 28°30' W 093°07'413.7
2018-Feb-16 12:30N 28°26' W 093°04'713.5
2018-Feb-16 12:00N 28°21' W 092°60'  
2018-Feb-13 18:53N 25°28' W 079°32'512.1
2018-Feb-13 18:26N 25°34' W 079°32'3511.9
2018-Feb-13 15:28N 26°09' W 079°26'  
Track history (hours):
 
Tides and Currents Weather Stations Pressure Air Temp Water Temp Dewpoint Dewpoint Depression Visibility Wind Speed Wind Dir Waves Ship Positions

St Aqua

Last reported at 2018-Feb-21 02:56 UTC. Time now 2018-Feb-22 13:11 UTC.
Position N 29°17' W 094°31'.

Length 155 m; draft 8.7 m.

Type: Tanker. MMSI: 636015203.

Date/timePositionNaut miles runAvg speedWind from/ knotsBaromVisibWave heightAir tempDewpointWater temp
2018-Feb-21 02:56N 29°17' W 094°31'0 0.0
2018-Feb-21 01:44N 29°17' W 094°31'0 0.0
2018-Feb-20 22:20N 29°17' W 094°31'0 0.0
2018-Feb-20 21:59N 29°17' W 094°31'0 0.0
2018-Feb-20 21:29N 29°17' W 094°31'0 0.0
2018-Feb-20 17:14N 29°17' W 094°31'0 0.0
2018-Feb-20 13:56N 29°17' W 094°31'0 0.1
2018-Feb-20 13:17N 29°17' W 094°31'0 0.0
2018-Feb-20 12:59N 29°17' W 094°31'0 0.1
2018-Feb-20 12:29N 29°17' W 094°31'0 0.1
2018-Feb-20 11:41N 29°17' W 094°31'0 0.0
2018-Feb-20 11:23N 29°17' W 094°31'0 0.0
2018-Feb-20 10:56N 29°17' W 094°31'0 0.0
2018-Feb-20 09:35N 29°17' W 094°31'0 0.1
2018-Feb-20 09:26N 29°17' W 094°31'0 0.0
2018-Feb-20 07:26N 29°17' W 094°31'0 0.0
2018-Feb-20 06:59N 29°17' W 094°31'0 0.0
2018-Feb-20 06:29N 29°17' W 094°31'0 0.0
2018-Feb-20 05:59N 29°17' W 094°31'22 4.7
2018-Feb-20 01:22N 29°22' W 094°06'411.8
2018-Feb-20 01:00N 29°25' W 094°03'611.8
2018-Feb-20 00:30N 29°28' W 093°57'611.8
2018-Feb-20 00:00N 29°30' W 093°51'611.9
2018-Feb-19 23:30N 29°32' W 093°45'611.8
2018-Feb-19 23:00N 29°33' W 093°38'611.8
2018-Feb-19 22:30N 29°35' W 093°31'611.6
2018-Feb-19 22:00N 29°36' W 093°25'7 1.8
2018-Feb-19 17:48N 29°37' W 093°16'2 6.0
2018-Feb-19 17:30N 29°37' W 093°18'5 9.7
2018-Feb-19 17:00N 29°41' W 093°20'511.1
2018-Feb-19 16:30N 29°47' W 093°21'510.2
2018-Feb-19 16:00N 29°52' W 093°21'5 9.5
2018-Feb-19 15:31N 29°57' W 093°20'4 8.1
2018-Feb-19 15:01N 30°01' W 093°20'5 7.9
2018-Feb-19 14:26N 30°05' W 093°20'3 7.1
2018-Feb-19 14:00N 30°08' W 093°20'3 5.1
2018-Feb-19 13:30N 30°11' W 093°19'3 5.0
2018-Feb-19 13:01N 30°12' W 093°17'1 2.6
2018-Feb-19 12:30N 30°13' W 093°17'0 0.0
2018-Feb-19 11:59N 30°13' W 093°17'0 0.0
2018-Feb-19 11:29N 30°13' W 093°17'0 0.0
2018-Feb-19 10:59N 30°13' W 093°17'0 0.0
2018-Feb-19 10:29N 30°13' W 093°17'0 0.0
2018-Feb-19 09:56N 30°13' W 093°17'0 0.0
2018-Feb-19 09:26N 30°13' W 093°17'0 0.0
2018-Feb-19 08:59N 30°13' W 093°17'0 0.0
2018-Feb-19 08:23N 30°13' W 093°17'0 0.0
2018-Feb-19 07:59N 30°13' W 093°17'0 0.0
2018-Feb-19 07:29N 30°13' W 093°17'0 0.0
2018-Feb-19 06:59N 30°13' W 093°17'0 0.0
2018-Feb-19 06:29N 30°13' W 093°17'0 0.0
2018-Feb-19 05:59N 30°13' W 093°17'0 0.0
2018-Feb-19 05:29N 30°13' W 093°17'0 0.0
2018-Feb-19 04:59N 30°13' W 093°17'0 0.0
2018-Feb-19 04:29N 30°13' W 093°17'0 0.0
2018-Feb-19 03:59N 30°13' W 093°17'0 0.0
2018-Feb-19 03:29N 30°13' W 093°17'0 0.0
2018-Feb-19 02:59N 30°13' W 093°17'0 0.0
2018-Feb-19 02:29N 30°13' W 093°17'0 0.0
2018-Feb-19 01:59N 30°13' W 093°17'0 0.0
2018-Feb-19 01:29N 30°13' W 093°17'0 0.0
2018-Feb-19 00:59N 30°13' W 093°17'0 0.0
2018-Feb-19 00:29N 30°13' W 093°17'0 0.0
2018-Feb-18 23:59N 30°13' W 093°17'0 0.0
2018-Feb-18 23:29N 30°13' W 093°17'0 0.0
2018-Feb-18 22:59N 30°13' W 093°17'0 0.0
2018-Feb-18 22:29N 30°13' W 093°17'0 0.0
2018-Feb-18 21:59N 30°13' W 093°17'0 0.0
2018-Feb-18 21:29N 30°13' W 093°17'0 0.0
2018-Feb-18 20:59N 30°13' W 093°17'0 0.0
2018-Feb-18 20:29N 30°13' W 093°17'0 0.0
2018-Feb-18 19:59N 30°13' W 093°17'0 0.0
2018-Feb-18 19:29N 30°13' W 093°17'0 0.0
2018-Feb-18 18:59N 30°13' W 093°17'0 0.0
2018-Feb-18 18:29N 30°13' W 093°17'0 0.0
2018-Feb-18 17:59N 30°13' W 093°17'0 0.0
2018-Feb-18 17:29N 30°13' W 093°17'0 0.0
2018-Feb-18 16:59N 30°13' W 093°17'0 0.0
2018-Feb-18 16:29N 30°13' W 093°17'0 0.0
2018-Feb-18 15:59N 30°13' W 093°17'0 0.0
2018-Feb-18 15:29N 30°13' W 093°17'0 0.0
2018-Feb-18 14:59N 30°13' W 093°17'0 0.0
2018-Feb-18 14:29N 30°13' W 093°17'0 0.0
2018-Feb-18 13:59N 30°13' W 093°17'0 0.0
2018-Feb-18 13:29N 30°13' W 093°17'0 0.0
2018-Feb-18 12:59N 30°13' W 093°17'0 0.0
2018-Feb-18 12:29N 30°13' W 093°17'0 0.0
2018-Feb-18 11:59N 30°13' W 093°17'0 0.0
2018-Feb-18 11:29N 30°13' W 093°17'0 0.0
2018-Feb-18 10:59N 30°13' W 093°17'0 0.0
2018-Feb-18 10:29N 30°13' W 093°17'0 0.0
2018-Feb-18 09:59N 30°13' W 093°17'0 0.0
2018-Feb-18 09:29N 30°13' W 093°17'0 0.0
2018-Feb-18 08:59N 30°13' W 093°17'0 0.0
2018-Feb-18 08:29N 30°13' W 093°17'0 0.0
2018-Feb-18 07:59N 30°13' W 093°17'0 0.0
2018-Feb-18 07:29N 30°13' W 093°17'0 0.0
2018-Feb-18 06:59N 30°13' W 093°17'0 0.0
2018-Feb-18 06:29N 30°13' W 093°17'0 0.0
2018-Feb-18 05:59N 30°13' W 093°17'0 0.0
2018-Feb-18 05:29N 30°13' W 093°17'0 0.0
2018-Feb-18 04:59N 30°13' W 093°17'0 0.0
2018-Feb-18 04:29N 30°13' W 093°17'0 0.0
2018-Feb-18 03:59N 30°13' W 093°17'0 0.0
2018-Feb-18 03:29N 30°13' W 093°17'0 0.0
2018-Feb-18 02:59N 30°13' W 093°17'0 0.0
2018-Feb-18 02:29N 30°13' W 093°17'0 0.0
2018-Feb-18 01:59N 30°13' W 093°17'0 0.0
2018-Feb-18 01:29N 30°13' W 093°17'0 0.0
2018-Feb-18 00:59N 30°13' W 093°17'0 0.0
2018-Feb-18 00:29N 30°13' W 093°17'0 0.0
2018-Feb-17 23:59N 30°13' W 093°17'0 0.0
2018-Feb-17 23:29N 30°13' W 093°17'0 0.0
2018-Feb-17 22:59N 30°13' W 093°17'0 0.0
2018-Feb-17 22:29N 30°13' W 093°17'0 0.0
2018-Feb-17 21:59N 30°13' W 093°17'0 0.0
2018-Feb-17 21:29N 30°13' W 093°17'0 0.1
2018-Feb-17 21:01N 30°13' W 093°17'2 3.7
2018-Feb-17 20:30N 30°12' W 093°17'3 6.1
2018-Feb-17 20:00N 30°09' W 093°20'4 7.2
2018-Feb-17 19:30N 30°06' W 093°20'4 8.7
2018-Feb-17 19:00N 30°01' W 093°20'4 7.0
2018-Feb-17 18:30N 29°58' W 093°20'5 9.2
2018-Feb-17 18:00N 29°53' W 093°21'5 9.6
2018-Feb-17 17:30N 29°48' W 093°21'4 8.8
2018-Feb-17 17:00N 29°44' W 093°20'611.3
2018-Feb-17 16:30N 29°38' W 093°19'6 0.6
2018-Feb-17 05:59N 29°35' W 093°14'0 0.0
2018-Feb-17 05:29N 29°35' W 093°14'0 0.0
2018-Feb-17 04:56N 29°35' W 093°14'0 0.0
2018-Feb-17 03:14N 29°35' W 093°14'0 0.0
2018-Feb-17 02:56N 29°35' W 093°14'0 0.0
2018-Feb-17 02:29N 29°35' W 093°14'0 0.0
2018-Feb-17 01:59N 29°35' W 093°14'0 0.0
2018-Feb-17 01:26N 29°35' W 093°14'0 0.0
2018-Feb-17 00:50N 29°35' W 093°14'0 0.0
2018-Feb-17 00:26N 29°35' W 093°14'0 0.0
2018-Feb-16 23:59N 29°35' W 093°14'0 0.0
2018-Feb-16 23:23N 29°35' W 093°14'0 0.0
2018-Feb-16 22:50N 29°35' W 093°14'0 0.0
2018-Feb-16 22:26N 29°35' W 093°14'0 0.0
2018-Feb-16 21:59N 29°35' W 093°14'0 0.0
2018-Feb-16 21:14N 29°35' W 093°14'0 0.0
2018-Feb-16 20:44N 29°35' W 093°14'0 0.0
2018-Feb-16 20:26N 29°35' W 093°14'0 0.0
2018-Feb-16 19:47N 29°35' W 093°14'0 0.1
2018-Feb-16 18:32N 29°35' W 093°14'0 0.9
2018-Feb-16 18:30N 29°35' W 093°14'4 7.1
2018-Feb-16 18:00N 29°32' W 093°13'612.8
2018-Feb-16 17:30N 29°25' W 093°13'3212.4
2018-Feb-16 14:53N 28°53' W 093°12'512.2
2018-Feb-16 14:30N 28°48' W 093°12'7 9.0
2018-Feb-16 13:44N 28°41' W 093°12'313.9
2018-Feb-16 13:30N 28°38' W 093°12'913.4
2018-Feb-16 12:49N 28°30' W 093°07'413.7
2018-Feb-16 12:30N 28°26' W 093°04'713.5
2018-Feb-16 12:00N 28°21' W 092°60'  
2018-Feb-13 18:53N 25°28' W 079°32'512.1
2018-Feb-13 18:26N 25°34' W 079°32'3511.9
2018-Feb-13 15:28N 26°09' W 079°26'  

Dump ship's entire track history